Time;durP1;ratioP1;P1;durP2;ratioP2;P2;SDS_P1;SDS_P2;PMS_P1;PMS_P2;Temp;Humidity;BMP_temperature;BMP_pressure;BME280_temperature;BME280_humidity;BME280_pressure;Samples;Min_cycle;Max_cycle;Signal;HPM_P1;HPM_P2
2023/04/09 00:02:17;;;;;;;;;;;;;;;5.82;88.18;97113.66;5035451;28;19949;-74
2023/04/09 00:04:43;;;;;;;;;;;;;;;5.82;88.96;97104.03;5035051;28;19989;-78
2023/04/09 00:07:09;;;;;;;;;;;;;;;5.83;89.25;97097.84;5035766;28;19978;-77
2023/04/09 00:09:35;;;;;;;;;;;;;;;5.84;88.81;97088.25;5035436;28;19944;-78
2023/04/09 00:12:01;;;;;;;;;;;;;;;5.84;88.99;97090.88;5034803;28;19975;-77
2023/04/09 00:14:26;;;;;;;;;;;;;;;5.81;88.85;97094.59;5034928;28;20458;-76
2023/04/09 00:16:53;;;;;;;;;;;;;;;5.79;89.10;97091.34;5034692;28;19955;-77
2023/04/09 00:19:19;;;;;;;;;;;;;;;5.78;89.24;97092.34;5034646;28;19972;-74
2023/04/09 00:21:45;;;;;;;;;;;;;;;5.76;89.03;97086.50;5034701;28;19939;-70
2023/04/09 00:24:11;;;;;;;;;;;;;;;5.75;89.20;97087.47;5034827;28;19943;-71
2023/04/09 00:26:37;;;;;;;;;;;;;;;5.75;89.24;97090.06;5034524;28;19955;-71
2023/04/09 00:29:03;;;;;;;;;;;;;;;5.78;90.13;97094.16;5016949;28;19942;-71
2023/04/09 00:31:29;;;;;;;;;;;;;;;5.79;89.52;97085.34;5034995;28;19943;-73
2023/04/09 00:33:55;;;;;;;;;;;;;;;5.79;90.12;97086.16;5034436;28;20398;-70
2023/04/09 00:36:21;;;;;;;;;;;;;;;5.79;89.66;97083.53;5034789;28;20416;-71
2023/04/09 00:38:47;;;;;;;;;;;;;;;5.79;90.75;97080.13;5034290;28;19967;-71
2023/04/09 00:41:13;;;;;;;;;;;;;;;5.79;90.87;97078.34;5035227;28;19938;-82
2023/04/09 00:43:39;;;;;;;;;;;;;;;5.79;90.16;97075.72;5034252;28;19945;-82
2023/04/09 00:46:05;;;;;;;;;;;;;;;5.82;90.74;97077.22;5034782;28;19943;-82
2023/04/09 00:48:31;;;;;;;;;;;;;;;5.82;90.73;97080.63;5034763;28;19937;-82
2023/04/09 00:50:57;;;;;;;;;;;;;;;5.82;90.84;97072.81;5034120;28;19938;-82
2023/04/09 00:53:22;;;;;;;;;;;;;;;5.83;91.01;97076.22;5034075;28;19962;-82
2023/04/09 00:55:48;;;;;;;;;;;;;;;5.84;90.53;97070.03;5016460;28;20326;-82
2023/04/09 00:58:14;;;;;;;;;;;;;;;5.82;90.65;97067.59;5034010;28;19953;-78
2023/04/09 01:00:40;;;;;;;;;;;;;;;5.82;90.94;97072.81;5033907;28;19965;-71
2023/04/09 01:03:06;;;;;;;;;;;;;;;5.81;90.54;97073.78;5034000;28;20042;-71
2023/04/09 01:05:40;;;;;;;;;;;;;;;5.81;90.64;97072.97;5033916;28;19946;-70
2023/04/09 01:08:11;;;;;;;;;;;;;;;5.82;90.48;97077.22;5034398;28;19945;-71
2023/04/09 01:10:40;;;;;;;;;;;;;;;5.82;90.08;97069.41;5034151;28;20363;-71
2023/04/09 01:13:15;;;;;;;;;;;;;;;5.84;90.41;97072.63;5034278;28;19976;-71
2023/04/09 01:15:50;;;;;;;;;;;;;;;5.84;90.61;97078.66;5033966;28;19955;-72
2023/04/09 01:18:29;;;;;;;;;;;;;;;5.84;90.39;97068.25;5034082;28;19948;-78
2023/04/09 01:21:04;;;;;;;;;;;;;;;5.85;90.16;97072.44;5016726;28;19982;-78
2023/04/09 01:23:49;;;;;;;;;;;;;;;5.86;90.85;97070.69;5033651;28;19948;-77
2023/04/09 01:26:15;;;;;;;;;;;;;;;5.87;90.45;97074.88;5033750;28;20405;-78
2023/04/09 01:28:45;;;;;;;;;;;;;;;5.87;90.78;97072.28;5033856;28;19942;-78
2023/04/09 01:31:16;;;;;;;;;;;;;;;5.87;90.66;97072.28;5034456;28;19968;-77
2023/04/09 01:33:42;;;;;;;;;;;;;;;5.87;90.70;97069.69;5033643;28;19948;-75
2023/04/09 01:36:08;;;;;;;;;;;;;;;5.87;90.80;97070.47;5016510;28;19959;-77
2023/04/09 01:38:35;;;;;;;;;;;;;;;5.87;90.71;97073.09;5034315;28;19951;-71
2023/04/09 01:41:02;;;;;;;;;;;;;;;5.88;90.64;97079.13;5034149;28;19960;-72
2023/04/09 01:43:29;;;;;;;;;;;;;;;5.89;91.15;97080.72;5033538;28;19947;-71
2023/04/09 01:45:55;;;;;;;;;;;;;;;5.88;90.75;97073.91;5016758;28;20393;-72
2023/04/09 01:48:22;;;;;;;;;;;;;;;5.87;91.44;97072.28;5016745;28;20280;-71
2023/04/09 01:50:49;;;;;;;;;;;;;;;5.87;91.22;97080.09;5033406;28;20313;-72
2023/04/09 01:53:15;;;;;;;;;;;;;;;5.87;90.96;97075.69;5033416;28;19944;-77
2023/04/09 01:55:41;;;;;;;;;;;;;;;5.87;91.05;97075.69;5016069;28;19936;-71
2023/04/09 01:58:06;;;;;;;;;;;;;;;5.88;90.86;97076.53;5033399;28;20400;-71
2023/04/09 02:00:42;;;;;;;;;;;;;;;5.88;90.86;97068.72;5033274;28;19957;-71
2023/04/09 02:03:16;;;;;;;;;;;;;;;5.89;91.01;97075.53;5015827;28;19948;-71
2023/04/09 02:05:45;;;;;;;;;;;;;;;5.88;90.93;97069.50;5033596;28;20415;-72
2023/04/09 02:08:15;;;;;;;;;;;;;;;5.89;91.09;97073.72;5033313;28;19954;-71
2023/04/09 02:10:41;;;;;;;;;;;;;;;5.88;90.84;97069.50;5034119;28;20378;-71
2023/04/09 02:13:09;;;;;;;;;;;;;;;5.90;91.01;97077.16;5033037;28;19972;-74
2023/04/09 02:15:37;;;;;;;;;;;;;;;5.90;90.80;97071.94;5033709;28;20402;-74
2023/04/09 02:18:03;;;;;;;;;;;;;;;5.88;91.03;97074.72;5033481;28;19943;-74
2023/04/09 02:20:29;;;;;;;;;;;;;;;5.89;91.06;97065.09;5035101;28;19963;-73
2023/04/09 02:22:55;;;;;;;;;;;;;;;5.89;91.04;97071.13;5036933;28;20402;-74
2023/04/09 02:25:21;;;;;;;;;;;;;;;5.88;90.76;97069.50;5036903;28;19944;-74
2023/04/09 02:27:47;;;;;;;;;;;;;;;5.88;90.98;97066.91;5037629;28;19949;-74
2023/04/09 02:30:13;;;;;;;;;;;;;;;5.89;90.85;97065.09;5037511;28;19940;-73
2023/04/09 02:32:39;;;;;;;;;;;;;;;5.89;90.91;97065.09;5036727;28;19945;-82
2023/04/09 02:35:05;;;;;;;;;;;;;;;5.88;90.82;97063.50;5037259;28;20332;-82
2023/04/09 02:37:31;;;;;;;;;;;;;;;5.88;91.46;97066.91;5036583;28;19959;-81
2023/04/09 02:39:56;;;;;;;;;;;;;;;5.88;91.50;97066.09;5037017;28;19962;-82
2023/04/09 02:42:22;;;;;;;;;;;;;;;5.88;91.58;97066.91;5036580;28;19993;-82
2023/04/09 02:44:48;;;;;;;;;;;;;;;5.88;91.53;97073.91;5037029;28;19943;-83
2023/04/09 02:47:14;;;;;;;;;;;;;;;5.89;91.25;97067.72;5036671;28;19949;-71
2023/04/09 02:49:40;;;;;;;;;;;;;;;5.87;90.98;97064.47;5037289;28;19939;-71
2023/04/09 02:52:06;;;;;;;;;;;;;;;5.88;91.05;97068.72;5036399;28;19953;-70
2023/04/09 02:54:32;;;;;;;;;;;;;;;5.86;91.40;97068.88;5036274;28;19940;-70
2023/04/09 02:56:58;;;;;;;;;;;;;;;5.86;91.47;97063.66;5036280;28;20389;-71
2023/04/09 02:59:23;;;;;;;;;;;;;;;5.85;91.35;97062.03;5036195;28;19963;-70
2023/04/09 03:01:49;;;;;;;;;;;;;;;5.85;91.46;97064.63;5036670;28;19944;-70
2023/04/09 03:04:15;;;;;;;;;;;;;;;5.85;91.68;97067.25;5036116;28;19940;-71
2023/04/09 03:06:41;;;;;;;;;;;;;;;5.84;91.61;97062.22;5036084;28;20481;-74
2023/04/09 03:09:07;;;;;;;;;;;;;;;5.83;91.42;97065.78;5036035;28;19940;-75
2023/04/09 03:11:33;;;;;;;;;;;;;;;5.83;91.66;97065.78;5036783;28;19951;-74
2023/04/09 03:13:59;;;;;;;;;;;;;;;5.82;91.37;97059.00;5035780;28;19980;-75
2023/04/09 03:16:25;;;;;;;;;;;;;;;5.81;91.00;97046.94;5036096;28;19946;-75
2023/04/09 03:18:50;;;;;;;;;;;;;;;5.80;91.24;97058.34;5035843;28;19941;-75
2023/04/09 03:21:16;;;;;;;;;;;;;;;5.80;91.37;97056.56;5035705;28;19972;-75
2023/04/09 03:23:42;;;;;;;;;;;;;;;5.78;91.71;97052.50;5036579;28;20393;-74
2023/04/09 03:26:11;;;;;;;;;;;;;;;5.77;91.84;97058.69;5035828;28;19940;-82
2023/04/09 03:28:37;;;;;;;;;;;;;;;5.76;91.77;97052.66;5035727;28;19954;-78
2023/04/09 03:31:02;;;;;;;;;;;;;;;5.74;91.51;97046.03;5036037;28;19942;-77
2023/04/09 03:33:28;;;;;;;;;;;;;;;5.73;91.76;97041.78;5036090;28;20393;-77
2023/04/09 03:35:54;;;;;;;;;;;;;;;5.69;91.24;97042.13;5036098;28;19972;-78
2023/04/09 03:38:20;;;;;;;;;;;;;;;5.68;91.60;97050.13;5035586;28;19959;-77
2023/04/09 03:40:46;;;;;;;;;;;;;;;5.64;91.94;97054.03;5035391;28;20048;-78
2023/04/09 03:43:12;;;;;;;;;;;;;;;5.60;92.04;97050.97;5035476;28;19952;-71
2023/04/09 03:45:37;;;;;;;;;;;;;;;5.58;92.02;97047.72;5035713;28;19986;-71
2023/04/09 03:48:03;;;;;;;;;;;;;;;5.56;92.02;97052.28;5036143;28;20277;-70
2023/04/09 03:50:29;;;;;;;;;;;;;;;5.54;92.21;97048.25;5035300;28;20440;-70
2023/04/09 03:52:55;;;;;;;;;;;;;;;5.51;91.95;97048.59;5035187;28;19949;-71
2023/04/09 03:55:21;;;;;;;;;;;;;;;5.48;91.85;97053.16;5036018;28;19946;-70
2023/04/09 03:57:47;;;;;;;;;;;;;;;5.45;91.95;97050.88;5035082;28;20026;-71
2023/04/09 04:00:13;;;;;;;;;;;;;;;5.43;92.20;97052.03;5035034;28;19970;-76
2023/04/09 04:02:39;;;;;;;;;;;;;;;5.42;92.05;97053.03;5035913;28;19986;-77
2023/04/09 04:05:05;;;;;;;;;;;;;;;5.38;91.89;97057.75;5036098;28;19947;-74
2023/04/09 04:07:31;;;;;;;;;;;;;;;5.37;92.42;97063.13;5035145;28;19940;-74
2023/04/09 04:09:57;;;;;;;;;;;;;;;5.34;92.14;97053.88;5035729;28;19950;-74
2023/04/09 04:12:23;;;;;;;;;;;;;;;5.32;92.02;97055.81;5035440;28;20012;-73
2023/04/09 04:14:49;;;;;;;;;;;;;;;5.28;92.58;97057.94;5034962;28;20051;-76
2023/04/09 04:17:15;;;;;;;;;;;;;;;5.26;92.36;97062.50;5034785;28;19998;-74
2023/04/09 04:19:40;;;;;;;;;;;;;;;5.23;92.74;97062.84;5034852;28;20428;-75
2023/04/09 04:22:06;;;;;;;;;;;;;;;5.24;92.90;97063.66;5017064;28;20007;-73
2023/04/09 04:24:32;;;;;;;;;;;;;;;5.21;92.76;97057.00;5035817;28;20356;-73
2023/04/09 04:26:58;;;;;;;;;;;;;;;5.19;93.04;97068.56;5034596;28;19996;-74
2023/04/09 04:29:26;;;;;;;;;;;;;;;5.18;92.88;97061.72;5034572;28;20405;-73
2023/04/09 04:31:51;;;;;;;;;;;;;;;5.17;93.14;97065.31;5034476;28;19943;-74
2023/04/09 04:34:17;;;;;;;;;;;;;;;5.15;93.30;97069.88;5034758;28;19943;-73
2023/04/09 04:36:43;;;;;;;;;;;;;;;5.15;93.18;97069.88;5035155;28;20372;-74
2023/04/09 04:39:09;;;;;;;;;;;;;;;5.14;93.50;97065.66;5034509;28;20386;-71
2023/04/09 04:41:35;;;;;;;;;;;;;;;5.12;93.27;97075.41;5034307;28;20049;-73
2023/04/09 04:44:01;;;;;;;;;;;;;;;5.11;93.63;97076.41;5016077;28;19945;-74
2023/04/09 04:46:27;;;;;;;;;;;;;;;5.11;93.64;97079.00;5034280;28;19945;-73
2023/04/09 04:48:52;;;;;;;;;;;;;;;5.11;93.76;97079.00;5034238;28;19943;-74
2023/04/09 04:51:18;;;;;;;;;;;;;;;5.09;93.99;97074.75;5016589;28;19991;-74
2023/04/09 04:53:44;;;;;;;;;;;;;;;5.10;94.13;97075.56;5034165;28;19966;-75
2023/04/09 04:56:11;;;;;;;;;;;;;;;5.12;94.37;97076.19;5034159;28;20459;-71
2023/04/09 04:58:37;;;;;;;;;;;;;;;5.14;94.46;97071.66;5017098;28;19949;-70
2023/04/09 05:01:03;;;;;;;;;;;;;;;5.14;94.57;97069.03;5016371;28;19956;-71
2023/04/09 05:03:29;;;;;;;;;;;;;;;5.15;94.54;97065.47;5017243;28;20027;-71
2023/04/09 05:05:55;;;;;;;;;;;;;;;5.16;94.82;97068.88;5034780;28;19944;-71
2023/04/09 05:08:21;;;;;;;;;;;;;;;5.17;94.46;97075.72;5034494;28;19955;-71
2023/04/09 05:10:46;;;;;;;;;;;;;;;5.18;95.16;97077.34;5034644;28;19952;-71
2023/04/09 05:13:12;;;;;;;;;;;;;;;5.20;94.75;97068.38;5034368;28;20312;-71
2023/04/09 05:15:39;;;;;;;;;;;;;;;5.22;95.46;97070.81;5034734;28;20380;-71
2023/04/09 05:18:06;;;;;;;;;;;;;;;5.22;95.13;97074.22;5033795;28;19949;-75
2023/04/09 05:20:32;;;;;;;;;;;;;;;5.25;95.25;97075.69;5016597;28;19956;-74
2023/04/09 05:22:58;;;;;;;;;;;;;;;5.26;95.61;97070.31;5033680;28;19939;-75
2023/04/09 05:25:24;;;;;;;;;;;;;;;5.30;95.58;97073.38;5033637;28;19990;-74
2023/04/09 05:27:50;;;;;;;;;;;;;;;5.32;95.64;97074.03;5033652;28;19942;-75
2023/04/09 05:30:16;;;;;;;;;;;;;;;5.37;95.37;97071.72;5034455;28;20343;-75
2023/04/09 05:32:42;;;;;;;;;;;;;;;5.40;95.40;97074.00;5034422;28;19946;-70
2023/04/09 05:35:08;;;;;;;;;;;;;;;5.47;94.72;97068.91;5034276;28;19956;-75
2023/04/09 05:37:34;;;;;;;;;;;;;;;5.53;94.87;97073.44;5033709;28;20404;-70
2023/04/09 05:39:59;;;;;;;;;;;;;;;5.63;95.11;97075.84;5033375;28;20005;-70
2023/04/09 05:42:25;;;;;;;;;;;;;;;5.74;94.45;97072.84;5033502;28;20399;-70
2023/04/09 05:44:51;;;;;;;;;;;;;;;5.82;94.20;97067.59;5033507;28;20024;-70
2023/04/09 05:47:17;;;;;;;;;;;;;;;5.94;93.85;97069.78;5034278;28;20321;-71
2023/04/09 05:49:43;;;;;;;;;;;;;;;6.03;92.63;97066.19;5033447;28;20296;-70
2023/04/09 05:52:09;;;;;;;;;;;;;;;6.07;92.73;97065.66;5033638;28;19947;-75
2023/04/09 05:54:35;;;;;;;;;;;;;;;6.12;92.43;97072.97;5033755;28;20401;-73
2023/04/09 05:57:01;;;;;;;;;;;;;;;6.15;91.91;97064.78;5037428;28;19939;-74
2023/04/09 05:59:26;;;;;;;;;;;;;;;6.19;91.74;97063.44;5037392;28;19974;-73
2023/04/09 06:01:52;;;;;;;;;;;;;;;6.24;91.39;97063.75;5037245;28;19965;-74
2023/04/09 06:04:18;;;;;;;;;;;;;;;6.44;91.84;97065.88;5037308;28;19942;-73
2023/04/09 06:06:44;;;;;;;;;;;;;;;7.03;90.55;97052.09;5037549;28;19946;-74
2023/04/09 06:09:10;;;;;;;;;;;;;;;7.51;88.76;97039.44;5037317;28;19939;-71
2023/04/09 06:11:37;;;;;;;;;;;;;;;7.70;87.32;97025.78;5037743;28;19943;-74
2023/04/09 06:14:03;;;;;;;;;;;;;;;7.75;85.17;97020.03;5036947;28;19967;-73
2023/04/09 06:16:28;;;;;;;;;;;;;;;7.93;84.34;97012.56;5037632;28;19969;-73
2023/04/09 06:18:55;;;;;;;;;;;;;;;8.00;83.72;97007.41;5037092;28;20389;-76
2023/04/09 06:21:21;;;;;;;;;;;;;;;8.06;83.31;97004.06;5037994;28;19961;-73
2023/04/09 06:23:47;;;;;;;;;;;;;;;8.31;82.90;96996.59;5036900;28;19948;-74
2023/04/09 06:26:13;;;;;;;;;;;;;;;8.56;82.14;96987.56;5036948;28;19944;-74
2023/04/09 06:28:39;;;;;;;;;;;;;;;8.86;81.29;96983.72;5037470;28;19940;-70
2023/04/09 06:31:05;;;;;;;;;;;;;;;9.08;80.49;96973.94;5019261;28;19946;-77
2023/04/09 06:33:31;;;;;;;;;;;;;;;9.50;79.39;96964.22;5036818;28;19950;-77
2023/04/09 06:35:56;;;;;;;;;;;;;;;10.04;78.36;96964.31;5037298;28;19961;-78
2023/04/09 06:38:22;;;;;;;;;;;;;;;10.38;75.46;96944.94;5036998;28;19941;-77
2023/04/09 06:40:48;;;;;;;;;;;;;;;10.74;73.73;96926.09;5036652;28;19979;-78
2023/04/09 06:43:14;;;;;;;;;;;;;;;10.94;72.73;96920.78;5037136;28;19942;-78
2023/04/09 06:45:40;;;;;;;;;;;;;;;11.11;72.42;96923.75;5036544;28;19942;-78
2023/04/09 06:48:06;;;;;;;;;;;;;;;11.21;71.39;96912.78;5037152;28;20398;-71
2023/04/09 06:50:31;;;;;;;;;;;;;;;11.34;70.20;96904.84;5036637;28;19940;-71
2023/04/09 06:52:57;;;;;;;;;;;;;;;11.50;70.53;96913.22;5036509;28;19957;-71
2023/04/09 06:55:23;;;;;;;;;;;;;;;11.65;69.40;96905.84;5036885;28;19946;-71
2023/04/09 06:57:49;;;;;;;;;;;;;;;11.84;69.66;96916.41;5035467;28;19944;-71
2023/04/09 07:00:15;;;;;;;;;;;;;;;11.97;64.53;96879.56;5036466;28;19963;-71
2023/04/09 07:02:41;;;;;;;;;;;;;;;11.84;67.89;96924.31;5036469;28;19948;-71
2023/04/09 07:05:08;;;;;;;;;;;;;;;11.65;65.98;96921.59;5018344;28;20012;-75
2023/04/09 07:07:33;;;;;;;;;;;;;;;11.54;66.17;96927.53;5035834;28;19945;-71
2023/04/09 07:10:00;;;;;;;;;;;;;;;11.38;69.50;96970.84;5036574;28;19955;-77
2023/04/09 07:12:26;;;;;;;;;;;;;;;11.10;69.91;96968.56;5035859;28;19952;-77
2023/04/09 07:14:52;;;;;;;;;;;;;;;10.97;70.82;96985.16;5035988;28;19942;-77
2023/04/09 07:17:18;;;;;;;;;;;;;;;10.94;71.56;96981.16;5036031;28;20315;-77
2023/04/09 07:19:44;;;;;;;;;;;;;;;11.07;68.76;96964.53;5035939;28;19938;-77
2023/04/09 07:22:10;;;;;;;;;;;;;;;10.80;69.37;96991.88;5036588;28;19963;-77
2023/04/09 07:24:36;;;;;;;;;;;;;;;10.36;69.67;96997.59;5018723;28;20062;-71
2023/04/09 07:27:02;;;;;;;;;;;;;;;10.25;70.54;97019.13;5001635;28;19938;-71
2023/04/09 07:29:28;;;;;;;;;;;;;;;10.07;71.63;97022.34;5018299;28;20442;-71
2023/04/09 07:31:54;;;;;;;;;;;;;;;9.86;73.13;97030.38;5035685;28;19938;-73
2023/04/09 07:34:20;;;;;;;;;;;;;;;9.61;73.03;97027.50;5018567;28;19985;-71
2023/04/09 07:36:46;;;;;;;;;;;;;;;9.37;74.19;97052.41;5035510;28;19967;-71
2023/04/09 07:39:12;;;;;;;;;;;;;;;9.12;74.95;97055.50;5035616;28;19941;-71
2023/04/09 07:41:37;;;;;;;;;;;;;;;9.01;74.18;97049.00;5018583;28;19960;-71
2023/04/09 07:44:05;;;;;;;;;;;;;;;8.98;76.70;97072.09;5017741;28;19968;-71
2023/04/09 07:46:31;;;;;;;;;;;;;;;9.01;76.21;97062.06;5035862;28;19945;-71
2023/04/09 07:48:57;;;;;;;;;;;;;;;9.03;77.29;97077.56;5017560;28;20546;-71
2023/04/09 07:51:23;;;;;;;;;;;;;;;9.10;78.06;97081.84;5035369;28;19946;-71
2023/04/09 07:53:49;;;;;;;;;;;;;;;9.19;78.19;97071.22;5036060;28;19946;-71
2023/04/09 07:56:15;;;;;;;;;;;;;;;9.30;77.77;97065.44;5035682;28;19948;-71
2023/04/09 07:58:41;;;;;;;;;;;;;;;9.29;77.67;97062.00;5017529;28;19943;-71
2023/04/09 08:01:07;;;;;;;;;;;;;;;9.26;77.82;97053.72;5035216;28;20443;-73
2023/04/09 08:03:34;;;;;;;;;;;;;;;9.23;77.96;97054.94;5035081;28;19943;-71
2023/04/09 08:06:00;;;;;;;;;;;;;;;9.17;76.16;97039.19;5018160;28;19944;-71
2023/04/09 08:08:26;;;;;;;;;;;;;;;9.32;76.41;97040.69;5017291;28;19948;-70
2023/04/09 08:10:52;;;;;;;;;;;;;;;9.69;73.78;97032.56;5018030;28;19937;-71
2023/04/09 08:13:18;;;;;;;;;;;;;;;9.58;70.68;97017.44;5034799;28;20020;-71
2023/04/09 08:15:44;;;;;;;;;;;;;;;9.41;72.06;97028.25;5017922;28;20416;-71
2023/04/09 08:18:10;;;;;;;;;;;;;;;9.21;72.97;97038.63;5034428;28;20412;-74
2023/04/09 08:20:35;;;;;;;;;;;;;;;9.06;72.99;97037.94;5034759;28;20353;-71
2023/04/09 08:23:01;;;;;;;;;;;;;;;9.07;72.91;97044.78;5034832;28;20313;-84
2023/04/09 08:25:27;;;;;;;;;;;;;;;9.35;71.52;97029.81;5017095;28;19949;-85
2023/04/09 08:27:53;;;;;;;;;;;;;;;9.53;70.41;97025.84;5034885;28;19939;-85
2023/04/09 08:30:20;;;;;;;;;;;;;;;9.53;68.10;97018.81;5034857;28;19944;-84
2023/04/09 08:32:45;;;;;;;;;;;;;;;9.54;68.90;97030.09;5034388;28;19944;-85
2023/04/09 08:35:12;;;;;;;;;;;;;;;9.51;66.87;97020.00;5035275;28;19939;-85
2023/04/09 08:37:38;;;;;;;;;;;;;;;9.46;67.53;97044.16;5034353;28;19959;-76
2023/04/09 08:40:04;;;;;;;;;;;;;;;9.90;65.33;97034.22;5017057;28;20408;-71
2023/04/09 08:42:30;;;;;;;;;;;;;;;10.43;66.35;97039.53;5034622;28;19943;-71
2023/04/09 08:44:56;;;;;;;;;;;;;;;10.33;56.30;97039.94;5034854;28;20420;-72
2023/04/09 08:47:22;;;;;;;;;;;;;;;10.06;51.90;97035.66;5035123;28;19947;-71
2023/04/09 08:49:49;;;;;;;;;;;;;;;9.81;53.58;97048.50;5034232;28;19951;-72
2023/04/09 08:52:16;;;;;;;;;;;;;;;9.74;52.79;97056.31;5034224;28;20314;-71
2023/04/09 08:54:42;;;;;;;;;;;;;;;10.03;57.50;97065.66;5034153;28;20328;-72
2023/04/09 08:57:08;;;;;;;;;;;;;;;10.13;54.15;97052.19;5034275;28;20316;-75
2023/04/09 08:59:36;;;;;;;;;;;;;;;10.29;54.63;97061.47;5034024;28;19945;-71
2023/04/09 09:02:06;;;;;;;;;;;;;;;10.24;56.17;97061.28;5034822;28;19954;-71
2023/04/09 09:04:45;;;;;;;;;;;;;;;10.05;56.18;97074.16;5034059;28;19937;-71
2023/04/09 09:07:11;;;;;;;;;;;;;;;9.87;62.12;97100.91;5034271;28;19942;-71
2023/04/09 09:09:49;;;;;;;;;;;;;;;9.80;60.46;97089.59;5034539;28;19946;-71
2023/04/09 09:12:29;;;;;;;;;;;;;;;9.79;63.83;97108.94;5033892;28;19941;-71
2023/04/09 09:14:55;;;;;;;;;;;;;;;9.78;63.44;97099.47;5034511;28;19951;-73
2023/04/09 09:17:20;;;;;;;;;;;;;;;9.69;57.30;97069.22;5033878;28;20026;-71
2023/04/09 09:19:46;;;;;;;;;;;;;;;9.69;62.39;97100.66;5033948;28;19948;-71
2023/04/09 09:22:13;;;;;;;;;;;;;;;9.80;63.46;97101.91;5034456;28;20002;-71
2023/04/09 09:24:50;;;;;;;;;;;;;;;9.93;61.82;97094.91;5033827;28;19938;-71
2023/04/09 09:27:32;;;;;;;;;;;;;;;10.03;60.54;97093.69;5034523;28;19952;-71
2023/04/09 09:29:58;;;;;;;;;;;;;;;10.01;54.31;97069.50;5033377;28;19950;-71
2023/04/09 09:32:24;;;;;;;;;;;;;;;9.84;53.94;97066.44;5034513;28;20313;-75
2023/04/09 09:34:56;;;;;;;;;;;;;;;9.74;56.97;97085.97;5033617;28;20026;-76
2023/04/09 09:37:29;;;;;;;;;;;;;;;9.65;53.20;97065.38;5033970;28;20330;-70
2023/04/09 09:39:54;;;;;;;;;;;;;;;9.64;55.91;97087.31;5033558;28;19951;-71
2023/04/09 09:42:20;;;;;;;;;;;;;;;9.54;57.65;97085.09;5015845;28;20412;-70
2023/04/09 09:44:46;;;;;;;;;;;;;;;9.47;53.02;97071.13;5034048;28;19961;-70
2023/04/09 09:47:13;;;;;;;;;;;;;;;9.52;54.91;97079.22;5033572;28;20308;-71
2023/04/09 09:49:39;;;;;;;;;;;;;;;9.57;56.65;97086.50;5034082;28;19939;-70
2023/04/09 09:52:07;;;;;;;;;;;;;;;9.61;57.18;97098.19;5033570;28;20390;-73
2023/04/09 09:54:41;;;;;;;;;;;;;;;9.64;58.03;97095.16;5034061;28;19941;-86
2023/04/09 09:57:08;;;;;;;;;;;;;;;9.61;57.31;97088.53;5033433;28;19942;-86
2023/04/09 09:59:37;;;;;;;;;;;;;;;9.58;57.19;97094.16;5033524;28;19947;-86
2023/04/09 10:02:04;;;;;;;;;;;;;;;9.53;57.13;97094.75;5033366;28;19964;-86
2023/04/09 10:04:33;;;;;;;;;;;;;;;9.48;58.67;97102.38;5033390;28;19939;-86
2023/04/09 10:07:02;;;;;;;;;;;;;;;9.38;58.46;97093.25;5033881;28;19942;-86
2023/04/09 10:09:28;;;;;;;;;;;;;;;9.24;59.77;97105.47;5033912;28;19951;-75
2023/04/09 10:11:55;;;;;;;;;;;;;;;9.18;60.60;97108.88;5015732;28;19949;-71
2023/04/09 10:14:21;;;;;;;;;;;;;;;9.15;60.52;97102.19;5033087;28;19973;-73
2023/04/09 10:16:47;;;;;;;;;;;;;;;9.17;59.03;97091.53;5033479;28;20397;-72
2023/04/09 10:19:13;;;;;;;;;;;;;;;9.17;60.08;97097.56;5033174;28;19944;-71
2023/04/09 10:21:46;;;;;;;;;;;;;;;9.21;59.59;97100.63;5033141;28;19954;-71
2023/04/09 10:24:12;;;;;;;;;;;;;;;9.19;56.07;97073.84;5033136;28;19950;-72
2023/04/09 10:26:43;;;;;;;;;;;;;;;9.22;58.14;97095.19;5033125;28;19943;-72
2023/04/09 10:29:13;;;;;;;;;;;;;;;9.28;59.34;97096.22;5033736;28;20420;-77
2023/04/09 10:32:03;;;;;;;;;;;;;;;9.29;59.37;97093.41;5033942;28;19945;-77
2023/04/09 10:34:29;;;;;;;;;;;;;;;9.32;57.55;97086.97;5033976;28;19954;-77
2023/04/09 10:36:56;;;;;;;;;;;;;;;9.32;56.30;97082.56;5033012;28;19960;-78
2023/04/09 10:39:26;;;;;;;;;;;;;;;9.35;58.01;97099.69;5015599;28;19944;-77
2023/04/09 10:41:53;;;;;;;;;;;;;;;9.37;58.25;97092.47;5018487;28;19958;-79
2023/04/09 10:44:23;;;;;;;;;;;;;;;9.35;58.44;97089.22;5037409;28;19962;-78
2023/04/09 10:46:51;;;;;;;;;;;;;;;9.37;56.89;97097.69;5037123;28;19952;-72
2023/04/09 10:49:18;;;;;;;;;;;;;;;9.42;57.53;97086.63;5036572;28;19946;-75
2023/04/09 10:51:47;;;;;;;;;;;;;;;9.48;54.76;97065.72;5036503;28;19949;-75
2023/04/09 10:54:32;;;;;;;;;;;;;;;9.40;54.60;97065.88;5036975;28;19948;-75
2023/04/09 10:57:06;;;;;;;;;;;;;;;9.48;54.69;97068.34;5036392;28;19944;-75
2023/04/09 10:59:32;;;;;;;;;;;;;;;9.55;54.93;97063.94;5036336;28;19943;-75
2023/04/09 11:01:58;;;;;;;;;;;;;;;9.72;56.10;97071.44;5019276;28;19971;-75
2023/04/09 11:04:32;;;;;;;;;;;;;;;9.86;55.39;97065.22;5018514;28;19948;-77
2023/04/09 11:06:59;;;;;;;;;;;;;;;9.90;52.48;97055.97;5036744;28;20310;-73
2023/04/09 11:09:24;;;;;;;;;;;;;;;10.00;54.05;97066.09;5036057;28;19944;-72
2023/04/09 11:11:51;;;;;;;;;;;;;;;10.05;53.95;97062.88;5037174;28;19941;-73
2023/04/09 11:14:20;;;;;;;;;;;;;;;10.32;55.33;97075.03;5036127;28;19980;-72
2023/04/09 11:16:46;;;;;;;;;;;;;;;10.83;55.21;97065.72;5035926;28;19944;-73
2023/04/09 11:19:12;;;;;;;;;;;;;;;11.26;53.96;97056.56;5018422;28;19950;-73
2023/04/09 11:21:44;;;;;;;;;;;;;;;11.60;53.98;97044.13;5035775;28;19962;-73
2023/04/09 11:24:14;;;;;;;;;;;;;;;11.60;51.47;97052.78;5036476;28;19946;-76
2023/04/09 11:26:40;;;;;;;;;;;;;;;11.45;51.96;97044.38;5036648;28;19946;-72
2023/04/09 11:29:09;;;;;;;;;;;;;;;11.33;49.61;97045.00;5035706;28;19943;-73
2023/04/09 11:31:35;;;;;;;;;;;;;;;11.14;51.21;97046.69;5036540;28;19945;-72
2023/04/09 11:34:02;;;;;;;;;;;;;;;11.16;53.07;97055.16;5035632;28;20012;-72
2023/04/09 11:36:28;;;;;;;;;;;;;;;11.20;52.39;97054.78;5035598;28;19966;-72
2023/04/09 11:38:54;;;;;;;;;;;;;;;11.16;50.16;97051.75;5035578;28;20296;-73
2023/04/09 11:41:33;;;;;;;;;;;;;;;11.13;50.94;97054.78;5018692;28;19956;-72
2023/04/09 11:44:00;;;;;;;;;;;;;;;10.95;51.64;97056.22;5035375;28;19947;-73
2023/04/09 11:46:27;;;;;;;;;;;;;;;10.94;52.40;97061.66;5017934;28;19953;-72
2023/04/09 11:48:52;;;;;;;;;;;;;;;10.83;50.83;97063.09;5018412;28;19948;-73
2023/04/09 11:51:18;;;;;;;;;;;;;;;10.87;52.66;97069.56;5035248;28;20500;-73
2023/04/09 11:53:44;;;;;;;;;;;;;;;10.92;52.41;97063.72;5035185;28;19945;-73
2023/04/09 11:56:10;;;;;;;;;;;;;;;10.93;49.96;97060.06;5035206;28;19942;-73
2023/04/09 11:58:36;;;;;;;;;;;;;;;10.98;51.94;97060.25;5035211;28;19940;-72
2023/04/09 12:01:02;;;;;;;;;;;;;;;11.00;50.92;97057.44;5035057;28;19986;-73
2023/04/09 12:03:29;;;;;;;;;;;;;;;10.95;51.35;97061.47;5035037;28;19991;-76
2023/04/09 12:05:55;;;;;;;;;;;;;;;10.92;51.43;97067.16;5001800;28;20287;-75
2023/04/09 12:08:22;;;;;;;;;;;;;;;10.91;51.12;97062.09;5034635;28;19944;-75
2023/04/09 12:10:48;;;;;;;;;;;;;;;10.89;49.52;97062.28;5034895;28;19951;-76
2023/04/09 12:13:15;;;;;;;;;;;;;;;10.85;48.99;97058.47;5034810;28;19971;-75
2023/04/09 12:15:42;;;;;;;;;;;;;;;10.76;49.38;97055.25;5034813;28;20329;-75
2023/04/09 12:18:08;;;;;;;;;;;;;;;10.89;50.88;97062.28;5035511;28;19943;-73
2023/04/09 12:20:35;;;;;;;;;;;;;;;11.05;48.67;97057.63;5035000;28;19940;-71
2023/04/09 12:23:02;;;;;;;;;;;;;;;11.02;48.59;97066.72;5017170;28;20316;-72
2023/04/09 12:25:29;;;;;;;;;;;;;;;11.00;47.39;97066.09;5035431;28;19970;-72
2023/04/09 12:27:55;;;;;;;;;;;;;;;11.06;48.60;97053.97;5034612;28;19935;-73
2023/04/09 12:30:22;;;;;;;;;;;;;;;11.16;50.86;97057.78;5034550;28;19942;-73
2023/04/09 12:32:48;;;;;;;;;;;;;;;11.35;50.33;97060.56;5034793;28;19948;-73
2023/04/09 12:35:14;;;;;;;;;;;;;;;11.45;48.18;97039.94;5035030;28;20382;-73
2023/04/09 12:37:41;;;;;;;;;;;;;;;11.63;48.19;97041.84;5034544;28;19951;-71
2023/04/09 12:40:07;;;;;;;;;;;;;;;11.76;47.56;97046.25;5016750;28;19953;-75
2023/04/09 12:42:33;;;;;;;;;;;;;;;11.74;49.63;97048.28;5034341;28;19959;-75
2023/04/09 12:44:59;;;;;;;;;;;;;;;11.79;45.84;97041.38;5034786;28;19966;-75
2023/04/09 12:47:24;;;;;;;;;;;;;;;11.75;48.49;97049.88;5034848;28;20020;-75
2023/04/09 12:49:50;;;;;;;;;;;;;;;11.61;47.43;97049.13;5034554;28;19994;-75
2023/04/09 12:52:17;;;;;;;;;;;;;;;11.44;47.08;97040.13;5035001;28;20043;-75
2023/04/09 12:54:43;;;;;;;;;;;;;;;11.65;48.40;97044.28;5034178;28;19945;-72